sensor_id;sensor_type;location;lat;lon;timestamp;P1;durP1;ratioP1;P2;durP2;ratioP2
4305;SDS011;2166;49.926;8.608;2022-07-24T00:01:34;8.25;;;4.38;;
4305;SDS011;2166;49.926;8.608;2022-07-24T00:04:03;5.47;;;4.40;;
4305;SDS011;2166;49.926;8.608;2022-07-24T00:06:31;5.75;;;4.38;;
4305;SDS011;2166;49.926;8.608;2022-07-24T00:09:00;8.25;;;4.25;;
4305;SDS011;2166;49.926;8.608;2022-07-24T00:11:29;5.22;;;4.35;;
4305;SDS011;2166;49.926;8.608;2022-07-24T00:13:57;8.68;;;4.45;;
4305;SDS011;2166;49.926;8.608;2022-07-24T00:16:27;6.57;;;4.53;;
4305;SDS011;2166;49.926;8.608;2022-07-24T00:18:55;5.55;;;4.03;;
4305;SDS011;2166;49.926;8.608;2022-07-24T00:21:24;5.20;;;4.68;;
4305;SDS011;2166;49.926;8.608;2022-07-24T00:23:52;6.90;;;4.75;;
4305;SDS011;2166;49.926;8.608;2022-07-24T00:26:20;7.40;;;4.35;;
4305;SDS011;2166;49.926;8.608;2022-07-24T00:28:48;8.02;;;3.78;;
4305;SDS011;2166;49.926;8.608;2022-07-24T00:31:17;6.47;;;4.15;;
4305;SDS011;2166;49.926;8.608;2022-07-24T00:33:47;5.82;;;3.97;;
4305;SDS011;2166;49.926;8.608;2022-07-24T00:36:15;5.78;;;4.65;;
4305;SDS011;2166;49.926;8.608;2022-07-24T00:38:43;4.80;;;4.03;;
4305;SDS011;2166;49.926;8.608;2022-07-24T00:41:12;4.75;;;3.75;;
4305;SDS011;2166;49.926;8.608;2022-07-24T00:43:59;7.10;;;4.28;;
4305;SDS011;2166;49.926;8.608;2022-07-24T00:46:29;7.95;;;3.90;;
4305;SDS011;2166;49.926;8.608;2022-07-24T00:48:58;6.68;;;3.92;;
4305;SDS011;2166;49.926;8.608;2022-07-24T00:51:27;8.88;;;4.25;;
4305;SDS011;2166;49.926;8.608;2022-07-24T00:53:55;5.47;;;4.25;;
4305;SDS011;2166;49.926;8.608;2022-07-24T00:56:24;12.80;;;4.40;;
4305;SDS011;2166;49.926;8.608;2022-07-24T00:58:52;7.50;;;3.92;;
4305;SDS011;2166;49.926;8.608;2022-07-24T01:01:20;7.10;;;4.10;;
4305;SDS011;2166;49.926;8.608;2022-07-24T01:03:48;5.22;;;3.92;;
4305;SDS011;2166;49.926;8.608;2022-07-24T01:06:19;7.75;;;3.90;;
4305;SDS011;2166;49.926;8.608;2022-07-24T01:08:47;7.63;;;4.55;;
4305;SDS011;2166;49.926;8.608;2022-07-24T01:11:16;5.05;;;4.50;;
4305;SDS011;2166;49.926;8.608;2022-07-24T01:13:45;4.43;;;4.03;;
4305;SDS011;2166;49.926;8.608;2022-07-24T01:16:14;5.03;;;4.18;;
4305;SDS011;2166;49.926;8.608;2022-07-24T01:18:43;6.35;;;4.93;;
4305;SDS011;2166;49.926;8.608;2022-07-24T01:21:13;9.13;;;4.60;;
4305;SDS011;2166;49.926;8.608;2022-07-24T01:23:41;6.68;;;4.43;;
4305;SDS011;2166;49.926;8.608;2022-07-24T01:26:09;4.70;;;4.10;;
4305;SDS011;2166;49.926;8.608;2022-07-24T01:28:38;7.90;;;4.38;;
4305;SDS011;2166;49.926;8.608;2022-07-24T01:31:06;8.23;;;5.03;;
4305;SDS011;2166;49.926;8.608;2022-07-24T01:33:34;6.72;;;4.63;;
4305;SDS011;2166;49.926;8.608;2022-07-24T01:36:02;7.70;;;5.25;;
4305;SDS011;2166;49.926;8.608;2022-07-24T01:38:32;8.93;;;4.35;;
4305;SDS011;2166;49.926;8.608;2022-07-24T01:41:00;9.20;;;4.50;;
4305;SDS011;2166;49.926;8.608;2022-07-24T01:43:28;8.55;;;4.43;;
4305;SDS011;2166;49.926;8.608;2022-07-24T01:45:57;6.18;;;4.07;;
4305;SDS011;2166;49.926;8.608;2022-07-24T01:48:25;5.55;;;4.35;;
4305;SDS011;2166;49.926;8.608;2022-07-24T01:50:53;8.85;;;4.45;;
4305;SDS011;2166;49.926;8.608;2022-07-24T01:53:21;6.35;;;4.80;;
4305;SDS011;2166;49.926;8.608;2022-07-24T01:55:51;7.25;;;4.38;;
4305;SDS011;2166;49.926;8.608;2022-07-24T01:58:20;4.72;;;3.95;;
4305;SDS011;2166;49.926;8.608;2022-07-24T02:00:48;5.00;;;4.47;;
4305;SDS011;2166;49.926;8.608;2022-07-24T02:03:17;4.70;;;3.67;;
4305;SDS011;2166;49.926;8.608;2022-07-24T02:05:45;6.03;;;3.92;;
4305;SDS011;2166;49.926;8.608;2022-07-24T02:08:13;6.18;;;3.78;;
4305;SDS011;2166;49.926;8.608;2022-07-24T02:10:42;4.93;;;4.18;;
4305;SDS011;2166;49.926;8.608;2022-07-24T02:13:11;6.35;;;3.83;;
4305;SDS011;2166;49.926;8.608;2022-07-24T02:15:39;4.63;;;3.58;;
4305;SDS011;2166;49.926;8.608;2022-07-24T02:18:07;7.28;;;3.50;;
4305;SDS011;2166;49.926;8.608;2022-07-24T02:20:36;5.70;;;4.28;;
4305;SDS011;2166;49.926;8.608;2022-07-24T02:23:05;4.75;;;4.07;;
4305;SDS011;2166;49.926;8.608;2022-07-24T02:25:33;5.63;;;4.28;;
4305;SDS011;2166;49.926;8.608;2022-07-24T02:28:01;7.13;;;4.18;;
4305;SDS011;2166;49.926;8.608;2022-07-24T02:30:30;6.47;;;4.60;;
4305;SDS011;2166;49.926;8.608;2022-07-24T02:32:58;9.00;;;4.57;;
4305;SDS011;2166;49.926;8.608;2022-07-24T02:35:29;6.70;;;3.85;;
4305;SDS011;2166;49.926;8.608;2022-07-24T02:37:57;9.70;;;3.75;;
4305;SDS011;2166;49.926;8.608;2022-07-24T02:40:25;5.43;;;4.10;;
4305;SDS011;2166;49.926;8.608;2022-07-24T02:42:54;7.65;;;4.38;;
4305;SDS011;2166;49.926;8.608;2022-07-24T02:45:21;8.52;;;4.10;;
4305;SDS011;2166;49.926;8.608;2022-07-24T02:47:52;6.95;;;4.35;;
4305;SDS011;2166;49.926;8.608;2022-07-24T02:50:22;9.75;;;4.20;;
4305;SDS011;2166;49.926;8.608;2022-07-24T02:52:51;7.63;;;4.10;;
4305;SDS011;2166;49.926;8.608;2022-07-24T02:55:20;5.05;;;4.20;;
4305;SDS011;2166;49.926;8.608;2022-07-24T02:57:48;6.13;;;3.95;;
4305;SDS011;2166;49.926;8.608;2022-07-24T03:00:17;6.53;;;4.47;;
4305;SDS011;2166;49.926;8.608;2022-07-24T03:02:45;6.07;;;3.92;;
4305;SDS011;2166;49.926;8.608;2022-07-24T03:05:15;6.40;;;4.18;;
4305;SDS011;2166;49.926;8.608;2022-07-24T03:07:43;8.20;;;4.20;;
4305;SDS011;2166;49.926;8.608;2022-07-24T03:10:13;7.15;;;4.45;;
4305;SDS011;2166;49.926;8.608;2022-07-24T03:12:42;7.55;;;4.75;;
4305;SDS011;2166;49.926;8.608;2022-07-24T03:15:11;7.20;;;4.93;;
4305;SDS011;2166;49.926;8.608;2022-07-24T03:17:46;8.45;;;4.47;;
4305;SDS011;2166;49.926;8.608;2022-07-24T03:20:18;15.52;;;4.80;;
4305;SDS011;2166;49.926;8.608;2022-07-24T03:22:47;6.53;;;4.97;;
4305;SDS011;2166;49.926;8.608;2022-07-24T03:25:15;8.00;;;4.85;;
4305;SDS011;2166;49.926;8.608;2022-07-24T03:27:44;5.57;;;4.28;;
4305;SDS011;2166;49.926;8.608;2022-07-24T03:30:14;7.25;;;4.63;;
4305;SDS011;2166;49.926;8.608;2022-07-24T03:32:43;9.73;;;5.05;;
4305;SDS011;2166;49.926;8.608;2022-07-24T03:35:12;6.65;;;4.70;;
4305;SDS011;2166;49.926;8.608;2022-07-24T03:37:41;9.90;;;4.85;;
4305;SDS011;2166;49.926;8.608;2022-07-24T03:40:10;7.75;;;4.63;;
4305;SDS011;2166;49.926;8.608;2022-07-24T03:42:39;10.77;;;4.70;;
4305;SDS011;2166;49.926;8.608;2022-07-24T03:45:08;5.57;;;4.63;;
4305;SDS011;2166;49.926;8.608;2022-07-24T03:47:36;7.13;;;4.35;;
4305;SDS011;2166;49.926;8.608;2022-07-24T03:50:05;6.72;;;4.57;;
4305;SDS011;2166;49.926;8.608;2022-07-24T03:52:33;6.72;;;4.60;;
4305;SDS011;2166;49.926;8.608;2022-07-24T03:55:04;4.90;;;4.40;;
4305;SDS011;2166;49.926;8.608;2022-07-24T03:57:33;7.80;;;4.88;;
4305;SDS011;2166;49.926;8.608;2022-07-24T04:00:02;6.30;;;4.70;;
4305;SDS011;2166;49.926;8.608;2022-07-24T04:02:38;5.97;;;4.50;;
4305;SDS011;2166;49.926;8.608;2022-07-24T04:05:06;4.95;;;4.55;;
4305;SDS011;2166;49.926;8.608;2022-07-24T04:07:36;5.05;;;4.43;;
4305;SDS011;2166;49.926;8.608;2022-07-24T04:10:06;7.45;;;5.10;;
4305;SDS011;2166;49.926;8.608;2022-07-24T04:12:35;9.93;;;5.00;;
4305;SDS011;2166;49.926;8.608;2022-07-24T04:15:04;5.03;;;4.53;;
4305;SDS011;2166;49.926;8.608;2022-07-24T04:17:32;8.18;;;4.63;;
4305;SDS011;2166;49.926;8.608;2022-07-24T04:20:04;6.75;;;4.43;;
4305;SDS011;2166;49.926;8.608;2022-07-24T04:22:33;6.15;;;4.43;;
4305;SDS011;2166;49.926;8.608;2022-07-24T04:25:07;6.00;;;4.60;;
4305;SDS011;2166;49.926;8.608;2022-07-24T04:27:35;6.13;;;4.45;;
4305;SDS011;2166;49.926;8.608;2022-07-24T04:30:04;6.85;;;4.45;;
4305;SDS011;2166;49.926;8.608;2022-07-24T04:32:33;6.28;;;4.85;;
4305;SDS011;2166;49.926;8.608;2022-07-24T04:35:01;6.55;;;4.65;;
4305;SDS011;2166;49.926;8.608;2022-07-24T04:37:29;5.57;;;4.38;;
4305;SDS011;2166;49.926;8.608;2022-07-24T04:39:57;8.00;;;5.25;;
4305;SDS011;2166;49.926;8.608;2022-07-24T04:42:27;11.93;;;4.72;;
4305;SDS011;2166;49.926;8.608;2022-07-24T04:44:55;8.32;;;4.47;;
4305;SDS011;2166;49.926;8.608;2022-07-24T04:47:23;8.15;;;5.10;;
4305;SDS011;2166;49.926;8.608;2022-07-24T04:49:51;9.52;;;5.40;;
4305;SDS011;2166;49.926;8.608;2022-07-24T04:52:20;14.70;;;4.90;;
4305;SDS011;2166;49.926;8.608;2022-07-24T04:54:48;5.20;;;4.10;;
4305;SDS011;2166;49.926;8.608;2022-07-24T04:57:16;6.80;;;4.00;;
4305;SDS011;2166;49.926;8.608;2022-07-24T04:59:46;9.25;;;4.38;;
4305;SDS011;2166;49.926;8.608;2022-07-24T05:02:14;5.95;;;3.75;;
4305;SDS011;2166;49.926;8.608;2022-07-24T05:04:42;5.50;;;4.00;;
4305;SDS011;2166;49.926;8.608;2022-07-24T05:07:11;7.20;;;3.60;;
4305;SDS011;2166;49.926;8.608;2022-07-24T05:09:39;8.35;;;3.42;;
4305;SDS011;2166;49.926;8.608;2022-07-24T05:12:07;4.72;;;3.20;;
4305;SDS011;2166;49.926;8.608;2022-07-24T05:14:35;7.30;;;4.13;;
4305;SDS011;2166;49.926;8.608;2022-07-24T05:17:05;4.35;;;3.15;;
4305;SDS011;2166;49.926;8.608;2022-07-24T05:19:33;6.18;;;3.55;;
4305;SDS011;2166;49.926;8.608;2022-07-24T05:22:01;5.03;;;3.90;;
4305;SDS011;2166;49.926;8.608;2022-07-24T05:24:29;6.70;;;4.00;;
4305;SDS011;2166;49.926;8.608;2022-07-24T05:26:57;5.43;;;3.95;;
4305;SDS011;2166;49.926;8.608;2022-07-24T05:29:26;4.25;;;3.45;;
4305;SDS011;2166;49.926;8.608;2022-07-24T05:31:54;4.05;;;3.20;;
4305;SDS011;2166;49.926;8.608;2022-07-24T05:34:23;4.78;;;3.20;;
4305;SDS011;2166;49.926;8.608;2022-07-24T05:36:52;4.40;;;2.90;;
4305;SDS011;2166;49.926;8.608;2022-07-24T05:39:20;5.03;;;3.22;;
4305;SDS011;2166;49.926;8.608;2022-07-24T05:41:48;3.30;;;2.85;;
4305;SDS011;2166;49.926;8.608;2022-07-24T05:44:16;5.72;;;2.80;;
4305;SDS011;2166;49.926;8.608;2022-07-24T05:46:44;5.28;;;3.05;;
4305;SDS011;2166;49.926;8.608;2022-07-24T05:49:12;5.93;;;2.70;;
4305;SDS011;2166;49.926;8.608;2022-07-24T05:51:42;4.35;;;2.60;;
4305;SDS011;2166;49.926;8.608;2022-07-24T05:54:11;4.55;;;2.75;;
4305;SDS011;2166;49.926;8.608;2022-07-24T05:56:39;8.20;;;2.88;;
4305;SDS011;2166;49.926;8.608;2022-07-24T05:59:08;4.50;;;2.67;;
4305;SDS011;2166;49.926;8.608;2022-07-24T06:01:36;7.25;;;2.75;;
4305;SDS011;2166;49.926;8.608;2022-07-24T06:04:04;5.53;;;2.47;;
4305;SDS011;2166;49.926;8.608;2022-07-24T06:06:33;4.82;;;2.83;;
4305;SDS011;2166;49.926;8.608;2022-07-24T06:09:02;6.40;;;2.65;;
4305;SDS011;2166;49.926;8.608;2022-07-24T06:11:32;3.33;;;2.55;;
4305;SDS011;2166;49.926;8.608;2022-07-24T06:14:00;7.88;;;2.67;;
4305;SDS011;2166;49.926;8.608;2022-07-24T06:16:29;4.18;;;2.42;;
4305;SDS011;2166;49.926;8.608;2022-07-24T06:18:57;6.88;;;2.30;;
4305;SDS011;2166;49.926;8.608;2022-07-24T06:21:26;2.80;;;2.17;;
4305;SDS011;2166;49.926;8.608;2022-07-24T06:23:55;3.25;;;2.30;;
4305;SDS011;2166;49.926;8.608;2022-07-24T06:26:24;3.22;;;2.00;;
4305;SDS011;2166;49.926;8.608;2022-07-24T06:28:52;3.70;;;2.38;;
4305;SDS011;2166;49.926;8.608;2022-07-24T06:31:20;2.97;;;2.50;;
4305;SDS011;2166;49.926;8.608;2022-07-24T06:33:49;2.53;;;2.28;;
4305;SDS011;2166;49.926;8.608;2022-07-24T06:36:17;7.35;;;2.45;;
4305;SDS011;2166;49.926;8.608;2022-07-24T06:38:45;3.75;;;2.72;;
4305;SDS011;2166;49.926;8.608;2022-07-24T06:41:14;4.88;;;2.58;;
4305;SDS011;2166;49.926;8.608;2022-07-24T06:43:44;7.20;;;2.67;;
4305;SDS011;2166;49.926;8.608;2022-07-24T06:46:12;3.47;;;2.67;;
4305;SDS011;2166;49.926;8.608;2022-07-24T06:48:40;3.13;;;2.60;;
4305;SDS011;2166;49.926;8.608;2022-07-24T06:51:08;3.38;;;2.78;;
4305;SDS011;2166;49.926;8.608;2022-07-24T06:53:36;4.95;;;2.35;;
4305;SDS011;2166;49.926;8.608;2022-07-24T06:56:07;4.55;;;2.85;;
4305;SDS011;2166;49.926;8.608;2022-07-24T06:58:35;5.25;;;2.25;;
4305;SDS011;2166;49.926;8.608;2022-07-24T07:01:04;4.00;;;2.38;;
4305;SDS011;2166;49.926;8.608;2022-07-24T07:03:32;3.03;;;2.75;;
4305;SDS011;2166;49.926;8.608;2022-07-24T07:06:01;4.28;;;3.05;;
4305;SDS011;2166;49.926;8.608;2022-07-24T07:08:29;3.95;;;2.65;;
4305;SDS011;2166;49.926;8.608;2022-07-24T07:10:57;4.20;;;2.88;;
4305;SDS011;2166;49.926;8.608;2022-07-24T07:13:25;5.15;;;2.90;;
4305;SDS011;2166;49.926;8.608;2022-07-24T07:15:53;3.38;;;2.90;;
4305;SDS011;2166;49.926;8.608;2022-07-24T07:18:23;3.63;;;2.45;;
4305;SDS011;2166;49.926;8.608;2022-07-24T07:20:51;3.03;;;2.42;;
4305;SDS011;2166;49.926;8.608;2022-07-24T07:23:20;3.33;;;2.92;;
4305;SDS011;2166;49.926;8.608;2022-07-24T07:25:52;4.70;;;2.75;;
4305;SDS011;2166;49.926;8.608;2022-07-24T07:28:21;5.63;;;2.85;;
4305;SDS011;2166;49.926;8.608;2022-07-24T07:30:49;5.07;;;2.83;;
4305;SDS011;2166;49.926;8.608;2022-07-24T07:33:17;4.70;;;2.90;;
4305;SDS011;2166;49.926;8.608;2022-07-24T07:35:47;6.43;;;3.42;;
4305;SDS011;2166;49.926;8.608;2022-07-24T07:38:16;6.20;;;3.08;;
4305;SDS011;2166;49.926;8.608;2022-07-24T07:40:50;5.03;;;2.80;;
4305;SDS011;2166;49.926;8.608;2022-07-24T07:43:18;4.10;;;3.20;;
4305;SDS011;2166;49.926;8.608;2022-07-24T07:45:46;4.30;;;2.80;;
4305;SDS011;2166;49.926;8.608;2022-07-24T07:48:15;6.63;;;3.50;;
4305;SDS011;2166;49.926;8.608;2022-07-24T07:50:44;4.47;;;2.95;;
4305;SDS011;2166;49.926;8.608;2022-07-24T07:53:13;4.15;;;2.85;;
4305;SDS011;2166;49.926;8.608;2022-07-24T07:55:41;4.57;;;2.75;;
4305;SDS011;2166;49.926;8.608;2022-07-24T07:58:10;6.25;;;3.17;;
4305;SDS011;2166;49.926;8.608;2022-07-24T08:00:38;2.60;;;2.40;;
4305;SDS011;2166;49.926;8.608;2022-07-24T08:03:06;5.30;;;2.70;;
4305;SDS011;2166;49.926;8.608;2022-07-24T08:05:35;3.47;;;2.45;;
4305;SDS011;2166;49.926;8.608;2022-07-24T08:08:03;5.80;;;3.13;;
4305;SDS011;2166;49.926;8.608;2022-07-24T08:10:33;4.45;;;2.70;;
4305;SDS011;2166;49.926;8.608;2022-07-24T08:13:02;6.50;;;3.00;;
4305;SDS011;2166;49.926;8.608;2022-07-24T08:15:30;4.85;;;2.85;;
4305;SDS011;2166;49.926;8.608;2022-07-24T08:17:59;5.13;;;2.75;;
4305;SDS011;2166;49.926;8.608;2022-07-24T08:20:27;5.30;;;3.10;;
4305;SDS011;2166;49.926;8.608;2022-07-24T08:22:56;2.67;;;2.45;;
4305;SDS011;2166;49.926;8.608;2022-07-24T08:25:24;3.70;;;2.40;;
4305;SDS011;2166;49.926;8.608;2022-07-24T08:27:54;4.45;;;2.40;;
4305;SDS011;2166;49.926;8.608;2022-07-24T08:30:22;2.80;;;2.42;;
4305;SDS011;2166;49.926;8.608;2022-07-24T08:32:52;4.15;;;2.55;;
4305;SDS011;2166;49.926;8.608;2022-07-24T08:35:20;3.25;;;2.53;;
4305;SDS011;2166;49.926;8.608;2022-07-24T08:37:58;3.97;;;2.67;;
4305;SDS011;2166;49.926;8.608;2022-07-24T08:40:27;3.67;;;2.38;;
4305;SDS011;2166;49.926;8.608;2022-07-24T08:43:03;2.72;;;2.20;;
4305;SDS011;2166;49.926;8.608;2022-07-24T08:45:33;2.90;;;2.60;;
4305;SDS011;2166;49.926;8.608;2022-07-24T08:48:03;3.20;;;2.40;;
4305;SDS011;2166;49.926;8.608;2022-07-24T08:50:32;4.35;;;2.55;;
4305;SDS011;2166;49.926;8.608;2022-07-24T08:53:02;2.63;;;2.25;;
4305;SDS011;2166;49.926;8.608;2022-07-24T08:55:31;4.18;;;2.35;;
4305;SDS011;2166;49.926;8.608;2022-07-24T08:58:00;5.97;;;2.88;;
4305;SDS011;2166;49.926;8.608;2022-07-24T09:00:30;3.00;;;2.70;;
4305;SDS011;2166;49.926;8.608;2022-07-24T09:03:00;2.53;;;2.22;;
4305;SDS011;2166;49.926;8.608;2022-07-24T09:05:28;3.17;;;2.22;;
4305;SDS011;2166;49.926;8.608;2022-07-24T09:08:05;2.72;;;2.50;;
4305;SDS011;2166;49.926;8.608;2022-07-24T09:10:34;4.70;;;2.30;;
4305;SDS011;2166;49.926;8.608;2022-07-24T09:13:11;3.85;;;2.17;;
4305;SDS011;2166;49.926;8.608;2022-07-24T09:15:46;3.95;;;2.70;;
4305;SDS011;2166;49.926;8.608;2022-07-24T09:18:26;3.92;;;2.22;;
4305;SDS011;2166;49.926;8.608;2022-07-24T09:20:56;4.22;;;2.20;;
4305;SDS011;2166;49.926;8.608;2022-07-24T09:23:25;5.47;;;2.17;;
4305;SDS011;2166;49.926;8.608;2022-07-24T09:25:54;3.78;;;2.22;;
4305;SDS011;2166;49.926;8.608;2022-07-24T09:28:22;4.28;;;2.17;;
4305;SDS011;2166;49.926;8.608;2022-07-24T09:30:53;3.72;;;2.30;;
4305;SDS011;2166;49.926;8.608;2022-07-24T09:33:29;4.60;;;2.30;;
4305;SDS011;2166;49.926;8.608;2022-07-24T09:36:10;4.13;;;2.15;;
4305;SDS011;2166;49.926;8.608;2022-07-24T09:38:43;4.07;;;2.10;;
4305;SDS011;2166;49.926;8.608;2022-07-24T09:41:18;2.28;;;1.98;;
4305;SDS011;2166;49.926;8.608;2022-07-24T09:43:58;2.85;;;2.42;;
4305;SDS011;2166;49.926;8.608;2022-07-24T09:46:29;3.83;;;2.70;;
4305;SDS011;2166;49.926;8.608;2022-07-24T09:48:58;3.33;;;2.35;;
4305;SDS011;2166;49.926;8.608;2022-07-24T09:51:29;5.55;;;2.22;;
4305;SDS011;2166;49.926;8.608;2022-07-24T09:53:58;3.85;;;2.60;;
4305;SDS011;2166;49.926;8.608;2022-07-24T09:56:27;3.47;;;2.70;;
4305;SDS011;2166;49.926;8.608;2022-07-24T09:58:56;3.42;;;2.50;;
4305;SDS011;2166;49.926;8.608;2022-07-24T10:01:29;4.25;;;1.90;;
4305;SDS011;2166;49.926;8.608;2022-07-24T10:03:58;2.85;;;1.92;;
4305;SDS011;2166;49.926;8.608;2022-07-24T10:06:27;4.57;;;2.17;;
4305;SDS011;2166;49.926;8.608;2022-07-24T10:08:56;2.75;;;2.08;;
4305;SDS011;2166;49.926;8.608;2022-07-24T10:11:25;3.47;;;2.38;;
4305;SDS011;2166;49.926;8.608;2022-07-24T10:13:54;2.58;;;2.25;;
4305;SDS011;2166;49.926;8.608;2022-07-24T10:16:26;5.63;;;2.85;;
4305;SDS011;2166;49.926;8.608;2022-07-24T10:19:00;3.63;;;2.03;;
4305;SDS011;2166;49.926;8.608;2022-07-24T10:21:31;3.42;;;2.35;;
4305;SDS011;2166;49.926;8.608;2022-07-24T10:24:10;2.85;;;2.10;;
4305;SDS011;2166;49.926;8.608;2022-07-24T10:26:45;4.72;;;2.78;;
4305;SDS011;2166;49.926;8.608;2022-07-24T10:29:15;2.88;;;2.28;;
4305;SDS011;2166;49.926;8.608;2022-07-24T10:31:47;4.22;;;2.58;;
4305;SDS011;2166;49.926;8.608;2022-07-24T10:34:19;3.67;;;2.65;;
4305;SDS011;2166;49.926;8.608;2022-07-24T10:37:09;4.13;;;2.83;;
4305;SDS011;2166;49.926;8.608;2022-07-24T10:39:45;3.70;;;3.00;;
4305;SDS011;2166;49.926;8.608;2022-07-24T10:42:22;6.15;;;3.30;;
4305;SDS011;2166;49.926;8.608;2022-07-24T10:45:12;4.90;;;3.17;;
4305;SDS011;2166;49.926;8.608;2022-07-24T10:47:43;4.88;;;2.78;;
4305;SDS011;2166;49.926;8.608;2022-07-24T10:50:11;7.40;;;3.30;;
4305;SDS011;2166;49.926;8.608;2022-07-24T10:52:42;5.68;;;3.10;;
4305;SDS011;2166;49.926;8.608;2022-07-24T10:55:24;5.75;;;3.28;;
4305;SDS011;2166;49.926;8.608;2022-07-24T10:58:02;4.68;;;2.97;;
4305;SDS011;2166;49.926;8.608;2022-07-24T11:00:40;5.43;;;3.13;;
4305;SDS011;2166;49.926;8.608;2022-07-24T11:03:19;5.53;;;3.40;;
4305;SDS011;2166;49.926;8.608;2022-07-24T11:06:02;4.88;;;3.47;;
4305;SDS011;2166;49.926;8.608;2022-07-24T11:08:31;5.15;;;3.03;;
4305;SDS011;2166;49.926;8.608;2022-07-24T11:11:08;4.45;;;3.13;;
4305;SDS011;2166;49.926;8.608;2022-07-24T11:13:48;5.78;;;3.30;;
4305;SDS011;2166;49.926;8.608;2022-07-24T11:16:19;3.30;;;2.95;;
4305;SDS011;2166;49.926;8.608;2022-07-24T11:22:01;4.43;;;2.78;;
4305;SDS011;2166;49.926;8.608;2022-07-24T11:24:31;6.95;;;3.05;;
4305;SDS011;2166;49.926;8.608;2022-07-24T11:27:05;5.10;;;3.42;;
4305;SDS011;2166;49.926;8.608;2022-07-24T11:29:35;3.38;;;2.97;;
4305;SDS011;2166;49.926;8.608;2022-07-24T11:32:05;4.57;;;2.90;;
4305;SDS011;2166;49.926;8.608;2022-07-24T11:34:44;8.50;;;3.58;;
4305;SDS011;2166;49.926;8.608;2022-07-24T11:37:13;5.68;;;3.03;;
4305;SDS011;2166;49.926;8.608;2022-07-24T11:39:42;5.10;;;3.40;;
4305;SDS011;2166;49.926;8.608;2022-07-24T11:42:12;3.63;;;2.90;;
4305;SDS011;2166;49.926;8.608;2022-07-24T11:44:42;4.13;;;3.55;;
4305;SDS011;2166;49.926;8.608;2022-07-24T11:47:12;3.50;;;3.20;;
4305;SDS011;2166;49.926;8.608;2022-07-24T11:49:42;5.88;;;3.50;;
4305;SDS011;2166;49.926;8.608;2022-07-24T11:52:13;5.20;;;3.42;;
4305;SDS011;2166;49.926;8.608;2022-07-24T11:54:44;3.50;;;3.20;;
4305;SDS011;2166;49.926;8.608;2022-07-24T11:57:17;3.95;;;3.45;;
4305;SDS011;2166;49.926;8.608;2022-07-24T12:00:07;5.70;;;3.55;;
4305;SDS011;2166;49.926;8.608;2022-07-24T12:02:42;4.18;;;2.97;;
4305;SDS011;2166;49.926;8.608;2022-07-24T12:07:50;4.70;;;3.30;;
4305;SDS011;2166;49.926;8.608;2022-07-24T12:10:18;3.65;;;3.08;;
4305;SDS011;2166;49.926;8.608;2022-07-24T12:12:49;3.72;;;2.95;;
4305;SDS011;2166;49.926;8.608;2022-07-24T12:15:18;4.50;;;3.67;;
4305;SDS011;2166;49.926;8.608;2022-07-24T12:17:54;4.30;;;3.50;;
4305;SDS011;2166;49.926;8.608;2022-07-24T12:20:26;3.72;;;3.20;;
4305;SDS011;2166;49.926;8.608;2022-07-24T12:22:55;5.22;;;3.33;;
4305;SDS011;2166;49.926;8.608;2022-07-24T12:25:25;6.88;;;2.95;;
4305;SDS011;2166;49.926;8.608;2022-07-24T12:28:01;4.25;;;3.08;;
4305;SDS011;2166;49.926;8.608;2022-07-24T12:30:32;3.47;;;2.95;;
4305;SDS011;2166;49.926;8.608;2022-07-24T12:33:03;6.68;;;3.28;;
4305;SDS011;2166;49.926;8.608;2022-07-24T12:35:34;4.60;;;3.00;;
4305;SDS011;2166;49.926;8.608;2022-07-24T12:38:22;5.22;;;2.72;;
4305;SDS011;2166;49.926;8.608;2022-07-24T12:41:01;5.53;;;3.05;;
4305;SDS011;2166;49.926;8.608;2022-07-24T12:43:30;4.78;;;3.92;;
4305;SDS011;2166;49.926;8.608;2022-07-24T12:46:06;8.32;;;3.35;;
4305;SDS011;2166;49.926;8.608;2022-07-24T12:48:36;3.88;;;2.75;;
4305;SDS011;2166;49.926;8.608;2022-07-24T12:51:07;3.33;;;3.03;;
4305;SDS011;2166;49.926;8.608;2022-07-24T12:53:38;3.30;;;2.80;;
4305;SDS011;2166;49.926;8.608;2022-07-24T12:56:09;4.40;;;3.13;;
4305;SDS011;2166;49.926;8.608;2022-07-24T13:01:44;2.90;;;2.60;;
4305;SDS011;2166;49.926;8.608;2022-07-24T13:04:15;3.80;;;2.60;;
4305;SDS011;2166;49.926;8.608;2022-07-24T13:06:46;3.25;;;2.95;;
4305;SDS011;2166;49.926;8.608;2022-07-24T13:09:16;3.15;;;2.70;;
4305;SDS011;2166;49.926;8.608;2022-07-24T13:11:45;3.13;;;2.83;;
4305;SDS011;2166;49.926;8.608;2022-07-24T13:14:16;3.63;;;2.70;;
4305;SDS011;2166;49.926;8.608;2022-07-24T13:16:45;5.72;;;3.40;;
4305;SDS011;2166;49.926;8.608;2022-07-24T13:19:15;3.03;;;2.83;;
4305;SDS011;2166;49.926;8.608;2022-07-24T13:21:43;4.35;;;2.58;;
4305;SDS011;2166;49.926;8.608;2022-07-24T13:24:14;3.45;;;2.72;;
4305;SDS011;2166;49.926;8.608;2022-07-24T13:26:48;3.70;;;3.10;;
4305;SDS011;2166;49.926;8.608;2022-07-24T13:29:17;5.95;;;3.40;;
4305;SDS011;2166;49.926;8.608;2022-07-24T13:31:45;5.72;;;3.05;;
4305;SDS011;2166;49.926;8.608;2022-07-24T13:34:13;3.72;;;2.97;;
4305;SDS011;2166;49.926;8.608;2022-07-24T13:36:41;6.68;;;3.08;;
4305;SDS011;2166;49.926;8.608;2022-07-24T13:39:14;3.85;;;3.17;;
4305;SDS011;2166;49.926;8.608;2022-07-24T13:41:42;6.13;;;3.42;;
4305;SDS011;2166;49.926;8.608;2022-07-24T13:44:11;3.20;;;2.90;;
4305;SDS011;2166;49.926;8.608;2022-07-24T13:46:39;5.63;;;2.72;;
4305;SDS011;2166;49.926;8.608;2022-07-24T13:49:07;4.65;;;3.00;;
4305;SDS011;2166;49.926;8.608;2022-07-24T13:51:36;4.80;;;3.50;;
4305;SDS011;2166;49.926;8.608;2022-07-24T13:54:05;3.45;;;3.10;;
4305;SDS011;2166;49.926;8.608;2022-07-24T13:56:35;4.75;;;3.42;;
4305;SDS011;2166;49.926;8.608;2022-07-24T13:59:04;6.93;;;3.17;;
4305;SDS011;2166;49.926;8.608;2022-07-24T14:01:32;2.97;;;2.70;;
4305;SDS011;2166;49.926;8.608;2022-07-24T14:04:01;6.43;;;3.00;;
4305;SDS011;2166;49.926;8.608;2022-07-24T14:06:51;3.85;;;3.40;;
4305;SDS011;2166;49.926;8.608;2022-07-24T14:09:19;5.18;;;3.30;;
4305;SDS011;2166;49.926;8.608;2022-07-24T14:11:50;3.67;;;3.35;;
4305;SDS011;2166;49.926;8.608;2022-07-24T14:14:19;5.22;;;3.05;;
4305;SDS011;2166;49.926;8.608;2022-07-24T14:16:47;5.45;;;3.38;;
4305;SDS011;2166;49.926;8.608;2022-07-24T14:19:16;5.00;;;3.08;;
4305;SDS011;2166;49.926;8.608;2022-07-24T14:21:45;7.05;;;3.17;;
4305;SDS011;2166;49.926;8.608;2022-07-24T14:24:15;3.60;;;3.10;;
4305;SDS011;2166;49.926;8.608;2022-07-24T14:26:45;4.13;;;3.45;;
4305;SDS011;2166;49.926;8.608;2022-07-24T14:29:16;5.45;;;2.95;;
4305;SDS011;2166;49.926;8.608;2022-07-24T14:31:44;5.00;;;3.30;;
4305;SDS011;2166;49.926;8.608;2022-07-24T14:34:13;5.47;;;3.33;;
4305;SDS011;2166;49.926;8.608;2022-07-24T14:36:41;3.60;;;3.30;;
4305;SDS011;2166;49.926;8.608;2022-07-24T14:39:10;3.97;;;3.40;;
4305;SDS011;2166;49.926;8.608;2022-07-24T14:41:43;4.88;;;3.50;;
4305;SDS011;2166;49.926;8.608;2022-07-24T14:44:11;4.25;;;3.40;;
4305;SDS011;2166;49.926;8.608;2022-07-24T14:46:41;7.05;;;3.40;;
4305;SDS011;2166;49.926;8.608;2022-07-24T14:49:10;5.00;;;3.25;;
4305;SDS011;2166;49.926;8.608;2022-07-24T14:51:38;3.92;;;3.50;;
4305;SDS011;2166;49.926;8.608;2022-07-24T14:54:07;3.72;;;3.40;;
4305;SDS011;2166;49.926;8.608;2022-07-24T14:56:37;4.88;;;3.55;;
4305;SDS011;2166;49.926;8.608;2022-07-24T14:59:06;5.07;;;4.00;;
4305;SDS011;2166;49.926;8.608;2022-07-24T15:01:47;4.10;;;3.70;;
4305;SDS011;2166;49.926;8.608;2022-07-24T15:04:16;4.63;;;3.50;;
4305;SDS011;2166;49.926;8.608;2022-07-24T15:06:44;5.63;;;3.95;;
4305;SDS011;2166;49.926;8.608;2022-07-24T15:09:12;5.40;;;3.60;;
4305;SDS011;2166;49.926;8.608;2022-07-24T15:11:41;4.95;;;3.60;;
4305;SDS011;2166;49.926;8.608;2022-07-24T15:14:09;4.25;;;3.83;;
4305;SDS011;2166;49.926;8.608;2022-07-24T15:16:37;4.18;;;3.78;;
4305;SDS011;2166;49.926;8.608;2022-07-24T15:19:07;3.78;;;3.38;;
4305;SDS011;2166;49.926;8.608;2022-07-24T15:21:35;3.83;;;3.50;;
4305;SDS011;2166;49.926;8.608;2022-07-24T15:24:04;3.92;;;3.63;;
4305;SDS011;2166;49.926;8.608;2022-07-24T15:26:34;4.82;;;3.33;;
4305;SDS011;2166;49.926;8.608;2022-07-24T15:29:03;6.85;;;3.83;;
4305;SDS011;2166;49.926;8.608;2022-07-24T15:31:32;5.32;;;3.63;;
4305;SDS011;2166;49.926;8.608;2022-07-24T15:34:03;4.95;;;3.42;;
4305;SDS011;2166;49.926;8.608;2022-07-24T15:36:34;4.28;;;3.80;;
4305;SDS011;2166;49.926;8.608;2022-07-24T15:39:03;5.85;;;3.33;;
4305;SDS011;2166;49.926;8.608;2022-07-24T15:41:31;4.88;;;3.17;;